createdAt,value
2018-12-19T00:02:27.359Z,0.30
2018-12-19T00:04:55.175Z,0.40
2018-12-19T00:07:22.750Z,0.30
2018-12-19T00:09:50.343Z,0.30
2018-12-19T00:12:18.035Z,0.30
2018-12-19T00:14:45.626Z,0.40
2018-12-19T00:17:13.199Z,0.30
2018-12-19T00:19:40.791Z,0.30
2018-12-19T00:22:08.345Z,0.20
2018-12-19T00:24:35.935Z,0.00
2018-12-19T00:27:03.503Z,0.00
2018-12-19T00:29:31.091Z,0.10
2018-12-19T00:31:58.658Z,0.20
2018-12-19T00:34:26.246Z,0.20
2018-12-19T00:36:53.803Z,0.00
2018-12-19T00:39:21.406Z,0.00
2018-12-19T00:41:48.966Z,0.00
2018-12-19T00:44:16.575Z,0.10
2018-12-19T00:46:44.138Z,0.20
2018-12-19T00:49:11.722Z,0.10
2018-12-19T00:51:39.311Z,-0.10
2018-12-19T00:54:06.882Z,-0.20
2018-12-19T00:56:34.473Z,-0.20
2018-12-19T00:59:02.039Z,-0.10
2018-12-19T01:01:29.625Z,0.00
2018-12-19T01:03:57.187Z,0.00
2018-12-19T01:06:24.887Z,0.00
2018-12-19T01:08:52.446Z,0.00
2018-12-19T01:11:20.047Z,0.00
2018-12-19T01:13:47.622Z,-0.10
2018-12-19T01:16:15.210Z,0.00
2018-12-19T01:18:42.773Z,0.00
2018-12-19T01:21:10.370Z,0.00
2018-12-19T01:23:37.933Z,-0.30
2018-12-19T01:26:05.521Z,-0.40
2018-12-19T01:28:33.087Z,-0.30
2018-12-19T01:31:00.742Z,-0.20
2018-12-19T01:33:28.307Z,-0.20
2018-12-19T01:35:55.907Z,-0.20
2018-12-19T01:38:23.506Z,-0.20
2018-12-19T01:40:51.070Z,-0.20
2018-12-19T01:43:18.663Z,-0.20
2018-12-19T01:45:46.235Z,-0.30
2018-12-19T01:48:13.831Z,-0.30
2018-12-19T01:50:41.398Z,-0.20
2018-12-19T01:53:08.987Z,-0.30
2018-12-19T01:55:36.562Z,-0.40
2018-12-19T01:58:04.155Z,-0.30
2018-12-19T02:00:31.731Z,-0.20
2018-12-19T02:02:59.322Z,-0.10
2018-12-19T02:05:26.899Z,-0.20
2018-12-19T02:07:54.491Z,-0.30
2018-12-19T02:10:22.055Z,-0.30
2018-12-19T02:12:49.655Z,-0.10
2018-12-19T02:15:17.223Z,-0.10
2018-12-19T02:17:44.818Z,-0.10
2018-12-19T02:20:12.495Z,-0.10
2018-12-19T02:22:40.762Z,-0.10
2018-12-19T02:25:08.443Z,-0.30
2018-12-19T02:27:36.011Z,-0.30
2018-12-19T02:30:04.944Z,-0.30
2018-12-19T02:32:32.510Z,-0.20
2018-12-19T02:35:00.104Z,-0.30
2018-12-19T02:37:27.668Z,-0.40
2018-12-19T02:39:55.335Z,-0.30
2018-12-19T02:42:22.905Z,-0.50
2018-12-19T02:44:50.504Z,-0.40
2018-12-19T02:47:18.087Z,-0.40
2018-12-19T02:49:45.679Z,-0.50
2018-12-19T02:52:14.186Z,-0.40
2018-12-19T02:54:41.775Z,-0.40
2018-12-19T02:57:09.350Z,-0.40
2018-12-19T02:59:36.939Z,-0.40
2018-12-19T03:02:05.385Z,-0.30
2018-12-19T03:04:32.978Z,-0.30
2018-12-19T03:07:00.554Z,-0.30
2018-12-19T03:09:28.147Z,-0.30
2018-12-19T03:11:55.719Z,-0.60
2018-12-19T03:14:23.328Z,-0.50
2018-12-19T03:16:50.895Z,-0.60
2018-12-19T03:19:18.495Z,-0.40
2018-12-19T03:21:46.064Z,-0.50
2018-12-19T03:24:13.778Z,-0.60
2018-12-19T03:26:41.459Z,-0.60
2018-12-19T03:29:09.124Z,-0.60
2018-12-19T03:31:36.725Z,-0.50
2018-12-19T03:34:04.395Z,-0.60
2018-12-19T03:36:32.001Z,-0.90
2018-12-19T03:38:59.619Z,-0.80
2018-12-19T03:41:27.431Z,-0.80
2018-12-19T03:43:55.006Z,-0.60
2018-12-19T03:46:22.598Z,-0.50
2018-12-19T03:48:56.469Z,-0.60
2018-12-19T03:51:24.763Z,-0.60
2018-12-19T03:53:52.329Z,-0.40
2018-12-19T03:56:19.930Z,-0.40
2018-12-19T03:58:47.519Z,-0.40
2018-12-19T04:01:15.238Z,-0.40
2018-12-19T04:03:42.809Z,-0.30
2018-12-19T04:06:10.405Z,-0.20
2018-12-19T04:08:38.029Z,-0.30
2018-12-19T04:11:05.606Z,-0.30
2018-12-19T04:13:33.195Z,-0.60
2018-12-19T04:16:00.771Z,-0.50
2018-12-19T04:18:28.371Z,-0.60
2018-12-19T04:20:55.945Z,-0.60
2018-12-19T04:23:23.547Z,-0.60
2018-12-19T04:25:51.123Z,-0.40
2018-12-19T04:28:18.714Z,-0.60
2018-12-19T04:30:46.278Z,-0.50
2018-12-19T04:33:13.879Z,-0.40
2018-12-19T04:35:41.765Z,-0.30
2018-12-19T04:38:09.361Z,-0.40
2018-12-19T04:40:36.940Z,-0.20
2018-12-19T04:43:04.530Z,-0.40
2018-12-19T04:45:32.098Z,-0.50
2018-12-19T04:47:59.699Z,-0.60
2018-12-19T04:50:27.278Z,-0.50
2018-12-19T04:52:54.890Z,-0.40
2018-12-19T04:55:22.484Z,-0.20
2018-12-19T04:57:50.067Z,-0.10
2018-12-19T05:00:17.651Z,0.00
2018-12-19T05:02:45.210Z,0.00
2018-12-19T05:05:12.915Z,0.00
2018-12-19T05:07:40.798Z,0.00
2018-12-19T05:10:12.266Z,-0.10
2018-12-19T05:12:38.111Z,-0.20
2018-12-19T05:15:06.145Z,-0.10
2018-12-19T05:17:33.726Z,0.10
2018-12-19T05:20:01.315Z,0.00
2018-12-19T05:22:28.870Z,0.00
2018-12-19T05:24:56.466Z,0.00
2018-12-19T05:27:24.032Z,0.00
2018-12-19T05:29:51.627Z,0.10
2018-12-19T05:32:19.186Z,0.20
2018-12-19T05:34:46.783Z,0.20
2018-12-19T05:37:14.368Z,0.20
2018-12-19T05:39:41.927Z,0.30
2018-12-19T05:42:09.562Z,0.30
2018-12-19T05:44:37.221Z,0.40
2018-12-19T05:47:04.815Z,0.30
2018-12-19T05:49:32.707Z,0.30
2018-12-19T05:52:00.303Z,0.40
2018-12-19T05:54:28.018Z,0.40
2018-12-19T05:56:55.618Z,0.50
2018-12-19T05:59:23.187Z,0.50
2018-12-19T06:01:50.776Z,0.60
2018-12-19T06:04:18.334Z,0.60
2018-12-19T06:06:45.934Z,0.60
2018-12-19T06:09:13.495Z,0.50
2018-12-19T06:11:41.078Z,0.60
2018-12-19T06:14:08.634Z,0.60
2018-12-19T06:16:36.227Z,0.50
2018-12-19T06:19:03.791Z,0.60
2018-12-19T06:21:32.264Z,0.60
2018-12-19T06:24:00.046Z,0.60
2018-12-19T06:26:27.610Z,0.70
2018-12-19T06:28:55.198Z,0.60
2018-12-19T06:31:22.754Z,0.70
2018-12-19T06:33:51.064Z,0.70
2018-12-19T06:36:18.627Z,0.70
2018-12-19T06:38:46.217Z,0.60
2018-12-19T06:41:13.781Z,0.60
2018-12-19T06:43:41.797Z,0.70
2018-12-19T06:46:09.358Z,0.70
2018-12-19T06:48:36.947Z,0.70
2018-12-19T06:51:04.520Z,0.70
2018-12-19T06:53:32.430Z,0.80
2018-12-19T06:55:59.997Z,0.80
2018-12-19T06:58:27.578Z,0.80
2018-12-19T07:00:55.239Z,0.80
2018-12-19T07:03:22.823Z,0.80
2018-12-19T07:05:50.410Z,0.80
2018-12-19T07:08:17.983Z,0.80
2018-12-19T07:10:45.579Z,0.80
2018-12-19T07:13:13.141Z,0.70
2018-12-19T07:15:40.739Z,0.80
2018-12-19T07:18:08.303Z,0.80
2018-12-19T07:20:35.902Z,0.80
2018-12-19T07:23:03.459Z,0.80
2018-12-19T07:25:31.051Z,0.90
2018-12-19T07:27:58.615Z,0.80
2018-12-19T07:30:26.217Z,0.70
2018-12-19T07:32:53.785Z,0.90
2018-12-19T07:35:21.370Z,0.90
2018-12-19T07:37:48.927Z,0.90
2018-12-19T07:40:16.516Z,0.80
2018-12-19T07:42:44.091Z,0.80
2018-12-19T07:45:11.798Z,0.90
2018-12-19T07:47:39.367Z,1.00
2018-12-19T07:50:06.926Z,1.10
2018-12-19T07:52:35.696Z,1.10
2018-12-19T07:55:03.490Z,1.20
2018-12-19T07:57:31.085Z,1.20
2018-12-19T07:59:58.654Z,1.10
2018-12-19T08:02:26.282Z,1.20
2018-12-19T08:04:53.842Z,1.20
2018-12-19T08:07:21.430Z,1.30
2018-12-19T08:09:49.035Z,1.40
2018-12-19T08:12:16.616Z,1.40
2018-12-19T08:14:44.174Z,1.30
2018-12-19T08:17:11.762Z,1.30
2018-12-19T08:19:39.332Z,1.30
2018-12-19T08:22:06.923Z,1.30
2018-12-19T08:24:34.482Z,1.40
2018-12-19T08:27:02.068Z,1.60
2018-12-19T08:29:29.636Z,1.60
2018-12-19T08:31:57.227Z,1.70
2018-12-19T08:34:24.807Z,1.70
2018-12-19T08:36:52.482Z,1.80
2018-12-19T08:39:20.400Z,1.80
2018-12-19T08:41:48.282Z,2.00
2018-12-19T08:44:15.863Z,2.00
2018-12-19T08:46:43.428Z,2.00
2018-12-19T08:49:11.019Z,2.20
2018-12-19T08:51:38.571Z,2.30
2018-12-19T08:54:06.214Z,2.30
2018-12-19T08:56:33.804Z,2.40
2018-12-19T08:59:01.387Z,2.40
2018-12-19T09:01:28.947Z,2.40
2018-12-19T09:03:56.534Z,2.40
2018-12-19T09:06:24.087Z,2.40
2018-12-19T09:08:51.674Z,2.40
2018-12-19T09:11:19.242Z,2.50
2018-12-19T09:13:46.827Z,2.60
2018-12-19T09:16:14.382Z,2.70
2018-12-19T09:18:41.968Z,2.70
2018-12-19T09:21:09.538Z,2.70
2018-12-19T09:23:37.127Z,2.80
2018-12-19T09:26:04.690Z,2.80
2018-12-19T09:28:32.279Z,3.00
2018-12-19T09:30:59.834Z,3.10
2018-12-19T09:33:27.754Z,3.10
2018-12-19T09:35:55.502Z,3.20
2018-12-19T09:38:23.093Z,3.10
2018-12-19T09:40:50.683Z,3.00
2018-12-19T09:43:18.855Z,3.00
2018-12-19T09:45:46.443Z,3.00
2018-12-19T09:48:14.006Z,2.80
2018-12-19T09:50:41.606Z,2.70
2018-12-19T09:53:09.166Z,2.90
2018-12-19T09:55:36.750Z,3.10
2018-12-19T09:58:04.422Z,3.00
2018-12-19T10:00:31.998Z,2.90
2018-12-19T10:02:59.558Z,2.90
2018-12-19T10:05:27.272Z,2.90
2018-12-19T10:07:54.835Z,2.80
2018-12-19T10:10:22.423Z,3.10
2018-12-19T10:12:49.993Z,3.30
2018-12-19T10:15:17.582Z,3.50
2018-12-19T10:17:45.155Z,3.60
2018-12-19T10:20:12.750Z,3.70
2018-12-19T10:22:41.323Z,3.80
2018-12-19T10:25:13.690Z,3.80
2018-12-19T10:27:41.547Z,3.80
2018-12-19T10:30:11.287Z,3.90
2018-12-19T10:32:39.326Z,4.00
2018-12-19T10:35:08.710Z,4.10
2018-12-19T10:37:36.522Z,4.10
2018-12-19T10:40:07.020Z,4.10
2018-12-19T10:42:34.615Z,4.20
2018-12-19T10:45:02.346Z,4.20
2018-12-19T10:47:30.003Z,4.10
2018-12-19T10:49:57.583Z,4.20
2018-12-19T10:52:25.163Z,4.20
2018-12-19T10:54:52.722Z,4.10
2018-12-19T10:57:20.343Z,4.10
2018-12-19T10:59:47.903Z,4.20
2018-12-19T11:02:15.486Z,4.30
2018-12-19T11:04:44.066Z,4.40
2018-12-19T11:07:11.654Z,4.30
2018-12-19T11:09:39.214Z,4.40
2018-12-19T11:12:06.790Z,4.50
2018-12-19T11:14:34.358Z,4.40
2018-12-19T11:17:02.181Z,4.10
2018-12-19T11:19:29.752Z,4.20
2018-12-19T11:21:57.335Z,4.40
2018-12-19T11:24:25.491Z,4.50
2018-12-19T11:26:53.969Z,4.50
2018-12-19T11:29:21.581Z,4.50
2018-12-19T11:31:49.143Z,4.60
2018-12-19T11:34:16.726Z,4.40
2018-12-19T11:36:44.398Z,4.30
2018-12-19T11:39:11.986Z,4.40
2018-12-19T11:41:39.548Z,4.40
2018-12-19T11:44:07.132Z,4.50
2018-12-19T11:46:34.695Z,4.50
2018-12-19T11:49:02.283Z,4.60
2018-12-19T11:51:29.843Z,4.60
2018-12-19T11:53:57.442Z,4.60
2018-12-19T11:56:24.995Z,4.60
2018-12-19T11:58:52.593Z,4.60
2018-12-19T12:01:20.187Z,4.50
2018-12-19T12:03:47.779Z,4.60
2018-12-19T12:06:15.339Z,4.70
2018-12-19T12:08:42.927Z,4.70
2018-12-19T12:11:10.514Z,4.70
2018-12-19T12:13:38.074Z,4.70
2018-12-19T12:16:05.662Z,4.70
2018-12-19T12:18:33.239Z,4.70
2018-12-19T12:21:00.835Z,4.80
2018-12-19T12:23:29.383Z,4.90
2018-12-19T12:25:56.969Z,5.00
2018-12-19T12:28:24.531Z,4.90
2018-12-19T12:30:52.117Z,5.00
2018-12-19T12:33:19.675Z,5.00
2018-12-19T12:35:47.578Z,5.00
2018-12-19T12:38:15.142Z,5.00
2018-12-19T12:40:42.739Z,5.00
2018-12-19T12:43:10.302Z,5.00
2018-12-19T12:45:37.885Z,5.00
2018-12-19T12:48:05.438Z,4.90
2018-12-19T12:50:33.030Z,4.90
2018-12-19T12:53:01.430Z,4.80
2018-12-19T12:55:28.999Z,4.60
2018-12-19T12:57:56.594Z,4.50
2018-12-19T13:00:24.155Z,4.50
2018-12-19T13:02:51.759Z,4.50
2018-12-19T13:05:21.364Z,4.40
2018-12-19T13:07:48.947Z,4.50
2018-12-19T13:10:16.504Z,4.60
2018-12-19T13:12:44.086Z,4.40
2018-12-19T13:15:13.658Z,4.50
2018-12-19T13:17:41.586Z,4.50
2018-12-19T13:20:09.194Z,4.50
2018-12-19T13:22:37.370Z,4.60
2018-12-19T13:25:05.258Z,4.60
2018-12-19T13:27:32.912Z,4.70
2018-12-19T13:30:00.470Z,4.70
2018-12-19T13:32:28.063Z,4.70
2018-12-19T13:34:55.651Z,4.70
2018-12-19T13:37:23.215Z,4.70
2018-12-19T13:39:50.811Z,4.70
2018-12-19T13:42:18.378Z,4.70
2018-12-19T13:44:46.019Z,4.70
2018-12-19T13:47:13.673Z,4.80
2018-12-19T13:49:41.258Z,4.90
2018-12-19T13:52:09.047Z,5.00
2018-12-19T13:54:36.642Z,4.90
2018-12-19T13:57:04.210Z,4.80
2018-12-19T13:59:31.794Z,4.70
2018-12-19T14:01:59.970Z,4.80
2018-12-19T14:04:27.686Z,4.80
2018-12-19T14:06:55.246Z,4.80
2018-12-19T14:09:22.830Z,4.90
2018-12-19T14:11:50.387Z,4.50
2018-12-19T14:14:17.975Z,4.30
2018-12-19T14:16:45.534Z,4.50
2018-12-19T14:19:13.124Z,4.50
2018-12-19T14:21:40.715Z,4.60
2018-12-19T14:24:08.282Z,4.60
2018-12-19T14:26:35.875Z,4.70
2018-12-19T14:29:03.438Z,4.70
2018-12-19T14:31:31.018Z,4.40
2018-12-19T14:33:58.708Z,4.20
2018-12-19T14:36:26.419Z,4.30
2018-12-19T14:38:54.063Z,4.50
2018-12-19T14:41:21.764Z,4.50
2018-12-19T14:43:49.333Z,4.40
2018-12-19T14:46:16.919Z,4.50
2018-12-19T14:48:44.485Z,4.70
2018-12-19T14:51:12.379Z,4.60
2018-12-19T14:53:40.059Z,4.60
2018-12-19T14:56:07.699Z,4.60
2018-12-19T14:58:35.259Z,4.60
2018-12-19T15:01:02.964Z,4.50
2018-12-19T15:03:30.546Z,4.20
2018-12-19T15:05:58.114Z,4.00
2018-12-19T15:08:25.711Z,4.00
2018-12-19T15:10:53.307Z,4.10
2018-12-19T15:13:20.891Z,4.10
2018-12-19T15:15:50.462Z,4.20
2018-12-19T15:18:18.042Z,4.20
2018-12-19T15:20:45.594Z,4.20
2018-12-19T15:23:13.174Z,4.30
2018-12-19T15:25:40.795Z,4.30
2018-12-19T15:28:08.386Z,4.20
2018-12-19T15:30:35.946Z,4.30
2018-12-19T15:33:03.848Z,4.30
2018-12-19T15:35:31.406Z,4.20
2018-12-19T15:37:58.990Z,4.20
2018-12-19T15:40:26.559Z,4.20
2018-12-19T15:42:54.159Z,4.20
2018-12-19T15:45:21.719Z,4.20
2018-12-19T15:47:49.302Z,4.20
2018-12-19T15:50:16.882Z,4.20
2018-12-19T15:52:44.442Z,4.20
2018-12-19T15:55:12.022Z,4.20
2018-12-19T15:57:39.586Z,4.20
2018-12-19T16:00:09.602Z,4.20
2018-12-19T16:02:37.158Z,4.20
2018-12-19T16:05:05.103Z,4.10
2018-12-19T16:07:32.672Z,4.00
2018-12-19T16:10:00.254Z,4.00
2018-12-19T16:12:27.864Z,4.00
2018-12-19T16:14:55.455Z,3.80
2018-12-19T16:17:23.019Z,3.70
2018-12-19T16:19:50.610Z,3.50
2018-12-19T16:22:18.894Z,3.50
2018-12-19T16:24:46.483Z,3.40
2018-12-19T16:27:14.055Z,3.40
2018-12-19T16:29:41.655Z,3.50
2018-12-19T16:32:09.219Z,3.40
2018-12-19T16:34:36.803Z,3.50
2018-12-19T16:37:04.390Z,3.60
2018-12-19T16:39:32.139Z,3.70
2018-12-19T16:41:59.750Z,3.70
2018-12-19T16:44:27.323Z,3.70
2018-12-19T16:46:54.907Z,3.70
2018-12-19T16:49:22.471Z,3.50
2018-12-19T16:51:50.143Z,3.50
2018-12-19T16:54:19.090Z,3.60
2018-12-19T16:56:46.678Z,3.60
2018-12-19T16:59:14.355Z,3.70
2018-12-19T17:01:41.947Z,3.70
2018-12-19T17:04:09.515Z,3.70
2018-12-19T17:06:37.115Z,3.70
2018-12-19T17:09:06.718Z,3.60
2018-12-19T17:11:34.298Z,3.60
2018-12-19T17:14:01.870Z,3.70
2018-12-19T17:16:29.465Z,3.70
2018-12-19T17:18:57.027Z,3.70
2018-12-19T17:21:24.615Z,3.70
2018-12-19T17:23:52.297Z,3.60
2018-12-19T17:26:19.984Z,3.60
2018-12-19T17:28:47.569Z,3.70
2018-12-19T17:31:15.154Z,3.70
2018-12-19T17:33:42.745Z,3.60
2018-12-19T17:36:10.362Z,3.50
2018-12-19T17:38:37.998Z,3.50
2018-12-19T17:41:08.554Z,3.60
2018-12-19T17:43:36.251Z,3.60
2018-12-19T17:46:03.845Z,3.60
2018-12-19T17:48:31.447Z,3.60
2018-12-19T17:50:59.135Z,3.60
2018-12-19T17:53:27.411Z,3.50
2018-12-19T17:55:54.998Z,3.50
2018-12-19T17:58:23.620Z,3.60
2018-12-19T18:00:51.179Z,3.60
2018-12-19T18:03:18.770Z,3.50
2018-12-19T18:05:46.382Z,3.50
2018-12-19T18:08:13.951Z,3.40
2018-12-19T18:10:41.633Z,3.30
2018-12-19T18:13:09.417Z,3.40
2018-12-19T18:15:37.160Z,3.40
2018-12-19T18:18:04.731Z,3.50
2018-12-19T18:20:32.328Z,3.40
2018-12-19T18:22:59.914Z,3.40
2018-12-19T18:25:27.649Z,3.40
2018-12-19T18:27:55.389Z,3.50
2018-12-19T18:30:23.128Z,3.50
2018-12-19T18:32:50.863Z,3.50
2018-12-19T18:35:18.459Z,3.50
2018-12-19T18:37:46.030Z,3.50
2018-12-19T18:40:13.640Z,3.50
2018-12-19T18:42:41.670Z,3.50
2018-12-19T18:45:11.965Z,3.50
2018-12-19T18:47:39.426Z,3.50
2018-12-19T18:50:07.774Z,3.40
2018-12-19T18:52:36.654Z,3.30
2018-12-19T18:55:05.294Z,3.30
2018-12-19T18:57:33.491Z,3.20
2018-12-19T19:00:01.110Z,3.20
2018-12-19T19:02:29.028Z,3.20
2018-12-19T19:04:56.875Z,3.20
2018-12-19T19:07:24.659Z,3.20
2018-12-19T19:09:52.218Z,3.10
2018-12-19T19:12:20.367Z,3.10
2018-12-19T19:14:48.095Z,2.80
2018-12-19T19:17:15.835Z,2.80
2018-12-19T19:19:43.459Z,2.90
2018-12-19T19:22:11.182Z,2.90
2018-12-19T19:24:39.054Z,2.90
2018-12-19T19:27:06.700Z,2.70
2018-12-19T19:29:34.474Z,2.60
2018-12-19T19:32:02.268Z,2.70
2018-12-19T19:34:29.990Z,2.60
2018-12-19T19:36:57.618Z,2.60
2018-12-19T19:39:25.333Z,2.50
2018-12-19T19:41:52.928Z,2.70
2018-12-19T19:44:20.542Z,2.80
2018-12-19T19:46:48.230Z,2.80
2018-12-19T19:49:16.098Z,2.70
2018-12-19T19:51:43.811Z,2.50
2018-12-19T19:54:11.523Z,2.50
2018-12-19T19:56:39.148Z,2.40
2018-12-19T19:59:06.854Z,2.40
2018-12-19T20:01:34.456Z,2.60
2018-12-19T20:04:02.191Z,2.60
2018-12-19T20:06:29.838Z,2.70
2018-12-19T20:08:57.626Z,2.50
2018-12-19T20:11:25.255Z,2.50
2018-12-19T20:13:52.891Z,2.60
2018-12-19T20:16:20.533Z,2.60
2018-12-19T20:18:48.127Z,2.70
2018-12-19T20:21:15.934Z,2.80
2018-12-19T20:23:43.522Z,2.90
2018-12-19T20:26:11.127Z,2.90
2018-12-19T20:28:38.888Z,2.90
2018-12-19T20:31:07.179Z,2.90
2018-12-19T20:33:35.171Z,2.70
2018-12-19T20:36:03.200Z,2.60
2018-12-19T20:38:30.867Z,2.60
2018-12-19T20:40:58.766Z,2.70
2018-12-19T20:43:26.379Z,2.80
2018-12-19T20:45:54.367Z,2.60
2018-12-19T20:48:22.314Z,2.70
2018-12-19T20:50:50.967Z,2.80
2018-12-19T20:53:18.575Z,2.80
2018-12-19T20:55:46.538Z,2.90
2018-12-19T20:58:14.388Z,2.60
2018-12-19T21:00:42.477Z,2.40
2018-12-19T21:03:10.151Z,2.50
2018-12-19T21:05:37.750Z,2.70
2018-12-19T21:08:05.318Z,2.40
2018-12-19T21:10:33.520Z,2.40
2018-12-19T21:13:01.194Z,2.30
2018-12-19T21:15:28.763Z,2.50
2018-12-19T21:20:59.742Z,2.50
2018-12-19T21:23:27.348Z,2.50
2018-12-19T21:25:54.915Z,2.60
2018-12-19T21:28:22.513Z,2.60
2018-12-19T21:30:50.074Z,2.50
2018-12-19T21:33:17.715Z,2.50
2018-12-19T21:35:45.814Z,2.30
2018-12-19T21:38:13.404Z,2.20
2018-12-19T21:40:40.986Z,2.30
2018-12-19T21:43:08.618Z,2.10
2018-12-19T21:45:36.249Z,2.20
2018-12-19T21:48:03.977Z,2.30
2018-12-19T21:50:31.658Z,2.50
2018-12-19T21:52:59.329Z,2.40
2018-12-19T21:55:26.895Z,2.50
2018-12-19T21:57:54.482Z,2.60
2018-12-19T22:00:24.090Z,2.60
2018-12-19T22:05:34.484Z,2.60
2018-12-19T22:08:02.330Z,2.70
2018-12-19T22:10:30.082Z,2.70
2018-12-19T22:12:57.806Z,2.60
2018-12-19T22:15:25.481Z,2.70
2018-12-19T22:17:55.190Z,2.70
2018-12-19T22:20:22.828Z,2.80
2018-12-19T22:22:50.555Z,2.80
2018-12-19T22:25:18.354Z,2.70
2018-12-19T22:27:46.037Z,2.90
2018-12-19T22:30:13.645Z,2.90
2018-12-19T22:32:41.215Z,3.00
2018-12-19T22:35:08.911Z,3.00
2018-12-19T22:37:36.478Z,3.00
2018-12-19T22:40:07.227Z,3.10
2018-12-19T22:42:34.815Z,3.10
2018-12-19T22:45:02.719Z,3.10
2018-12-19T22:47:30.444Z,3.10
2018-12-19T22:49:58.024Z,3.10
2018-12-19T22:52:25.610Z,3.10
2018-12-19T22:54:53.189Z,3.10
2018-12-19T22:57:20.791Z,3.00
2018-12-19T22:59:48.445Z,3.00
2018-12-19T23:02:21.871Z,3.00
2018-12-19T23:04:49.639Z,2.90
2018-12-19T23:07:17.268Z,2.90
2018-12-19T23:09:44.886Z,2.80
2018-12-19T23:12:12.583Z,2.90
2018-12-19T23:14:40.244Z,2.80
2018-12-19T23:17:13.624Z,2.80
2018-12-19T23:19:41.323Z,3.00
2018-12-19T23:22:09.035Z,3.00
2018-12-19T23:24:36.591Z,3.10
2018-12-19T23:27:04.149Z,3.00
2018-12-19T23:29:31.805Z,3.10
2018-12-19T23:31:59.435Z,3.10
2018-12-19T23:34:27.183Z,2.90
2018-12-19T23:36:54.850Z,3.00
2018-12-19T23:39:23.242Z,2.90
2018-12-19T23:41:50.810Z,2.90
2018-12-19T23:44:22.606Z,3.00
2018-12-19T23:46:50.255Z,3.10
2018-12-19T23:49:17.975Z,3.00
2018-12-19T23:51:45.535Z,2.90
2018-12-19T23:54:13.687Z,3.00
2018-12-19T23:56:41.320Z,3.00
2018-12-19T23:59:08.970Z,3.00
